Terminal Aerodrome Forecast
Issued by NWS

Home | Current Version | Previous Version | Text Only | Print | Product List | Glossary On
Versions: 1 2 3 4 5 6 7 8 9 10 11 12 13 14 15 16 17 18 19
165
FTUS46 KMTR 230526
TAFMRY
TAF
KMRY 230526Z 2306/2406 VRB03KT P6SM OVC005
     FM231200 00000KT 3SM BR OVC002
     FM231500 VRB02KT P6SM BKN005
     FM231700 33003KT P6SM SKC
     FM232100 27009KT P6SM SKC
     FM240200 25008KT P6SM SCT008
     FM240400 25006KT P6SM BKN007=

USA.gov is the U.S. government's official web portal to all federal, state and local government web resources and services.